Time;durP1;ratioP1;P1;durP2;ratioP2;P2;SDS_P1;SDS_P2;PMS_P1;PMS_P2;Temp;Humidity;BMP_temperature;BMP_pressure;BME280_temperature;BME280_humidity;BME280_pressure;Samples;Min_cycle;Max_cycle;Signal;HPM_P1;HPM_P2
2021/12/03 00:01:28;;;;;;;40.70;25.15;;;3.30;81.60;;;-151.14;100.00;62537.16;4044408;33;20327;-84
2021/12/03 00:03:55;;;;;;;41.10;24.08;;;3.30;81.70;;;-151.14;100.00;62537.16;4003244;33;20302;-84
2021/12/03 00:06:21;;;;;;;39.78;23.63;;;3.30;81.60;;;-151.14;100.00;62537.16;4025748;34;20087;-85
2021/12/03 00:08:47;;;;;;;36.65;23.52;;;3.30;81.60;;;-151.14;100.00;62537.16;3991144;34;20601;-84
2021/12/03 00:11:14;;;;;;;40.22;24.10;;;3.30;81.50;;;-151.14;100.00;62537.16;3972021;34;20625;-84
2021/12/03 00:13:41;;;;;;;40.60;23.05;;;3.30;81.40;;;-151.14;100.00;62537.16;4014556;34;20401;-84
2021/12/03 00:16:08;;;;;;;39.15;23.75;;;3.30;81.70;;;-151.14;100.00;62537.16;3968418;34;20367;-84
2021/12/03 00:18:35;;;;;;;38.15;23.60;;;3.30;81.60;;;-151.14;100.00;62537.16;3967231;34;20766;-84
2021/12/03 00:21:03;;;;;;;40.42;24.05;;;3.30;81.60;;;-151.14;100.00;62537.16;3988259;34;20309;-84
2021/12/03 00:23:30;;;;;;;37.80;22.75;;;3.30;81.70;;;-151.14;100.00;62537.16;3969394;34;20335;-85
2021/12/03 00:26:00;;;;;;;36.97;22.17;;;3.30;81.80;;;-151.14;100.00;62537.16;3979538;33;20006;-84
2021/12/03 00:28:30;;;;;;;36.80;22.40;;;3.30;81.70;;;-151.14;100.00;62537.16;4020872;33;20443;-84
2021/12/03 00:30:57;;;;;;;40.60;25.27;;;3.30;81.70;;;-151.14;100.00;62537.16;4018138;33;20601;-84
2021/12/03 00:33:25;;;;;;;35.63;22.85;;;3.30;81.60;;;-151.14;100.00;62537.16;3994021;33;20381;-84
2021/12/03 00:35:52;;;;;;;36.28;22.10;;;3.30;81.60;;;-151.14;100.00;62537.16;3993044;33;20211;-84
2021/12/03 00:38:19;;;;;;;37.90;22.30;;;3.30;81.60;;;-151.14;100.00;62537.16;3989968;33;20635;-85
2021/12/03 00:40:46;;;;;;;32.67;20.35;;;3.30;81.60;;;-151.14;100.00;62537.16;4013423;33;20349;-84
2021/12/03 00:43:12;;;;;;;37.05;21.73;;;3.30;81.80;;;-151.14;100.00;62537.16;3995649;33;20635;-84
2021/12/03 00:45:39;;;;;;;33.50;20.85;;;3.30;81.50;;;-151.14;100.00;62537.16;4019644;33;20277;-85
2021/12/03 00:48:05;;;;;;;33.60;20.35;;;3.30;81.50;;;-151.14;100.00;62537.16;3997966;33;20288;-84
2021/12/03 00:50:32;;;;;;;35.30;20.83;;;3.30;81.60;;;-151.14;100.00;62537.16;3976597;33;20283;-86
2021/12/03 00:52:59;;;;;;;36.83;22.20;;;3.30;81.70;;;-151.14;100.00;62537.16;3995819;33;20348;-85
2021/12/03 00:55:27;;;;;;;32.30;20.40;;;3.30;81.70;;;-151.14;100.00;62537.16;3999958;33;20056;-85
2021/12/03 00:57:53;;;;;;;38.03;21.65;;;3.30;81.70;;;-151.14;100.00;62537.16;3992049;33;20078;-85
2021/12/03 01:00:28;;;;;;;36.97;22.20;;;3.30;81.70;;;-151.14;100.00;62537.16;3971613;33;20320;-85
2021/12/03 01:02:56;;;;;;;30.30;19.73;;;3.30;81.70;;;-151.14;100.00;62537.16;4018711;33;20301;-84
2021/12/03 01:05:23;;;;;;;33.38;20.45;;;3.30;81.70;;;-151.14;100.00;62537.16;3997992;33;20585;-84
2021/12/03 01:07:49;;;;;;;34.60;21.83;;;3.30;81.60;;;-151.14;100.00;62537.16;4034830;33;20280;-85
2021/12/03 01:10:16;;;;;;;34.70;21.58;;;3.30;81.60;;;-151.14;100.00;62537.16;3988256;33;20663;-85
2021/12/03 01:12:42;;;;;;;31.15;19.90;;;3.30;81.60;;;-151.14;100.00;62537.16;4026921;33;20264;-84
2021/12/03 01:15:15;;;;;;;31.67;20.50;;;3.30;81.60;;;-151.14;100.00;62537.16;4025023;33;20601;-84
2021/12/03 01:17:42;;;;;;;32.58;19.58;;;3.30;81.70;;;-151.14;100.00;62537.16;4000407;33;20010;-85
2021/12/03 01:20:10;;;;;;;32.00;19.80;;;3.30;81.70;;;-151.14;100.00;62537.16;4024324;33;20392;-85
2021/12/03 01:22:37;;;;;;;31.25;19.42;;;3.30;81.70;;;-151.14;100.00;62537.16;4023939;33;20543;-83
2021/12/03 01:25:08;;;;;;;31.70;19.92;;;3.30;81.80;;;-151.14;100.00;62537.16;4003151;33;20209;-84
2021/12/03 01:27:35;;;;;;;32.53;20.65;;;3.30;82.50;;;-151.14;100.00;62537.16;3993722;34;20612;-85
2021/12/03 01:30:08;;;;;;;33.83;19.90;;;3.30;81.60;;;-151.14;100.00;62537.16;4018053;34;20306;-85
2021/12/03 01:32:35;;;;;;;33.35;19.77;;;3.30;81.70;;;-151.14;100.00;62537.16;4016416;33;20279;-85
2021/12/03 01:35:07;;;;;;;31.13;20.08;;;3.30;81.70;;;-151.14;100.00;62537.16;4045150;33;20667;-85
2021/12/03 01:37:37;;;;;;;30.83;18.65;;;3.30;81.70;;;-151.14;100.00;62537.16;4042528;33;20622;-85
2021/12/03 01:40:06;;;;;;;32.50;19.83;;;3.30;81.70;;;-151.14;100.00;62537.16;3998182;33;20366;-85
2021/12/03 01:42:33;;;;;;;29.60;18.13;;;3.30;81.60;;;-151.14;100.00;62537.16;4002106;33;20401;-85
2021/12/03 01:45:00;;;;;;;34.10;19.60;;;3.30;81.70;;;-151.14;100.00;62537.16;4022414;33;20593;-85
2021/12/03 01:47:27;;;;;;;32.85;19.75;;;3.30;81.70;;;-151.14;100.00;62537.16;4043782;33;20387;-84
2021/12/03 01:49:57;;;;;;;29.60;18.02;;;3.30;81.70;;;-151.14;100.00;62537.16;4024833;33;20593;-85
2021/12/03 01:52:24;;;;;;;30.48;18.63;;;3.30;81.60;;;-151.14;100.00;62537.16;4023154;33;20525;-85
2021/12/03 01:54:50;;;;;;;29.45;18.20;;;3.30;81.70;;;-151.14;100.00;62537.16;4043114;33;20452;-85
2021/12/03 01:57:17;;;;;;;31.77;18.77;;;3.30;81.70;;;-151.14;100.00;62537.16;4016548;33;20695;-84
2021/12/03 01:59:47;;;;;;;29.20;18.45;;;3.30;81.70;;;-151.14;100.00;62537.16;4019742;33;20586;-85
2021/12/03 02:02:17;;;;;;;30.33;18.83;;;3.30;81.70;;;-151.14;100.00;62537.16;3997383;33;20279;-84
2021/12/03 02:04:44;;;;;;;31.10;18.88;;;3.30;81.60;;;-151.14;100.00;62537.16;3999925;33;20278;-84
2021/12/03 02:07:13;;;;;;;32.50;19.00;;;3.30;81.60;;;-151.14;100.00;62537.16;4000360;33;20635;-84
2021/12/03 02:09:40;;;;;;;32.42;18.67;;;3.30;81.60;;;-151.14;100.00;62537.16;3992238;34;20018;-84
2021/12/03 02:12:10;;;;;;;29.70;18.65;;;3.30;81.60;;;-151.14;100.00;62537.16;3991087;34;20632;-85
2021/12/03 02:14:40;;;;;;;30.45;18.90;;;3.30;81.60;;;-151.14;100.00;62537.16;3947529;34;20043;-85
2021/12/03 02:17:07;;;;;;;29.08;18.05;;;3.30;81.60;;;-151.14;100.00;62537.16;4008967;34;20016;-85
2021/12/03 02:19:37;;;;;;;28.80;17.45;;;3.30;81.60;;;-151.14;100.00;62537.16;3964364;34;20354;-85
2021/12/03 02:22:04;;;;;;;31.20;18.55;;;3.30;81.70;;;-151.14;100.00;62537.16;4011158;34;20058;-85
2021/12/03 02:24:34;;;;;;;29.30;17.50;;;3.30;81.70;;;-151.14;100.00;62537.16;3991288;34;20109;-85
2021/12/03 02:27:04;;;;;;;31.20;18.13;;;3.30;81.70;;;-151.14;100.00;62537.16;3988436;33;20303;-86
2021/12/03 02:29:32;;;;;;;31.23;18.73;;;3.30;82.00;;;-151.14;100.00;62537.16;4001497;33;20230;-86
2021/12/03 02:32:11;;;;;;;28.10;17.98;;;3.30;81.70;;;-151.14;100.00;62537.16;4024733;33;20277;-85
2021/12/03 02:34:53;;;;;;;30.13;18.35;;;3.30;81.70;;;-151.14;100.00;62537.16;4003741;33;20637;-85
2021/12/03 02:37:30;;;;;;;29.00;18.17;;;3.30;81.70;;;-151.14;100.00;62537.16;4047036;33;20269;-85
2021/12/03 02:39:58;;;;;;;28.58;17.27;;;3.30;81.80;;;-151.14;100.00;62537.16;4043012;33;20006;-85
2021/12/03 02:42:25;;;;;;;34.25;19.75;;;3.30;81.70;;;-151.14;100.00;62537.16;4022365;33;20516;-84
2021/12/03 02:44:54;;;;;;;30.60;18.70;;;3.30;81.70;;;-151.14;100.00;62537.16;3996185;34;20543;-85
2021/12/03 02:47:21;;;;;;;30.00;17.52;;;3.30;81.70;;;-151.14;100.00;62537.16;3968768;34;20612;-84
2021/12/03 02:50:04;;;;;;;28.88;16.58;;;3.30;81.70;;;-151.14;100.00;62537.16;4017970;33;20520;-85
2021/12/03 02:52:33;;;;;;;27.17;16.38;;;3.30;81.70;;;-151.14;100.00;62537.16;4047069;33;20259;-85
2021/12/03 02:55:00;;;;;;;29.23;17.52;;;3.30;81.80;;;-151.14;100.00;62537.16;4021573;33;20274;-85
2021/12/03 02:57:27;;;;;;;31.95;18.25;;;3.30;81.60;;;-151.14;100.00;62537.16;4020161;33;20240;-85
2021/12/03 02:59:58;;;;;;;30.48;17.50;;;3.30;81.70;;;-151.14;100.00;62537.16;3995267;33;20281;-85
2021/12/03 03:02:28;;;;;;;28.67;18.20;;;3.30;81.60;;;-151.14;100.00;62537.16;4019177;33;20261;-85
2021/12/03 03:05:01;;;;;;;26.70;16.35;;;3.30;81.60;;;-151.14;100.00;62537.16;4045153;33;20308;-85
2021/12/03 03:07:39;;;;;;;29.20;17.58;;;3.30;81.60;;;-151.14;100.00;62537.16;4042726;33;20548;-85
2021/12/03 03:10:18;;;;;;;28.60;17.77;;;3.30;81.70;;;-151.14;100.00;62537.16;4064298;33;20280;-85
2021/12/03 03:12:52;;;;;;;29.55;17.73;;;3.30;81.60;;;-151.14;100.00;62537.16;4046589;33;20554;-85
2021/12/03 03:15:22;;;;;;;28.45;16.02;;;3.30;81.60;;;-151.14;100.00;62537.16;4020984;33;20240;-85
2021/12/03 03:17:49;;;;;;;26.67;16.90;;;3.30;81.60;;;-151.14;100.00;62537.16;4014599;33;20531;-85
2021/12/03 03:20:19;;;;;;;27.33;16.92;;;3.30;81.60;;;-151.14;100.00;62537.16;3994949;33;20286;-85
2021/12/03 03:22:48;;;;;;;27.05;16.95;;;3.30;81.70;;;-151.14;100.00;62537.16;4021225;33;20272;-84
2021/12/03 03:25:18;;;;;;;25.45;16.42;;;3.30;81.60;;;-151.14;100.00;62537.16;4041952;33;20571;-85
2021/12/03 03:27:45;;;;;;;25.23;16.25;;;3.30;81.60;;;-151.14;100.00;62537.16;4019493;33;20328;-85
2021/12/03 03:30:13;;;;;;;28.20;16.10;;;3.30;81.70;;;-151.14;100.00;62537.16;4020811;33;20062;-85
2021/12/03 03:32:41;;;;;;;23.55;15.73;;;3.30;81.70;;;-151.14;100.00;62537.16;3999676;33;20314;-85
2021/12/03 03:35:11;;;;;;;25.58;15.77;;;3.30;81.70;;;-151.14;100.00;62537.16;3996613;33;20592;-85
2021/12/03 03:37:40;;;;;;;20.98;14.15;;;3.30;81.60;;;-151.14;100.00;62537.16;4019121;33;20316;-85
2021/12/03 03:40:08;;;;;;;27.77;15.93;;;3.30;81.60;;;-151.14;100.00;62537.16;4015791;33;20299;-84
2021/12/03 03:42:35;;;;;;;24.58;15.32;;;3.30;81.70;;;-151.14;100.00;62537.16;4017783;33;20238;-85
2021/12/03 03:45:09;;;;;;;24.98;15.75;;;3.30;81.70;;;-151.14;100.00;62537.16;3997215;33;20209;-85
2021/12/03 03:47:37;;;;;;;26.13;16.05;;;3.30;81.70;;;-151.14;100.00;62537.16;3997396;33;20205;-86
2021/12/03 03:50:05;;;;;;;25.70;15.50;;;3.30;81.70;;;-151.14;100.00;62537.16;4020881;33;20045;-85
2021/12/03 03:52:31;;;;;;;24.17;14.75;;;3.30;81.70;;;-151.14;100.00;62537.16;4045374;33;20620;-86
2021/12/03 03:54:58;;;;;;;27.25;15.52;;;3.30;81.60;;;-151.14;100.00;62537.16;3997852;33;20322;-85
2021/12/03 03:57:25;;;;;;;23.27;14.27;;;3.30;81.70;;;-151.14;100.00;62537.16;4016794;33;20272;-85
2021/12/03 03:59:51;;;;;;;21.75;13.85;;;3.30;81.60;;;-151.14;100.00;62537.16;3996913;33;20265;-86
2021/12/03 04:02:18;;;;;;;23.23;14.48;;;3.30;81.50;;;-151.14;100.00;62537.16;3998321;33;20268;-85
2021/12/03 04:04:44;;;;;;;24.40;14.45;;;3.30;81.70;;;-151.14;100.00;62537.16;4042166;33;20322;-84
2021/12/03 04:07:10;;;;;;;21.95;13.73;;;3.30;81.60;;;-151.14;100.00;62537.16;3998828;33;20270;-84
2021/12/03 04:09:37;;;;;;;21.50;13.68;;;3.30;81.70;;;-151.14;100.00;62537.16;4043556;33;20284;-85
2021/12/03 04:12:04;;;;;;;25.23;15.07;;;3.30;81.70;;;-151.14;100.00;62537.16;4025253;33;20010;-85
2021/12/03 04:14:30;;;;;;;23.45;14.13;;;3.30;81.60;;;-151.14;100.00;62537.16;4024547;33;20603;-85
2021/12/03 04:16:57;;;;;;;22.63;14.07;;;3.30;81.60;;;-151.14;100.00;62537.16;4022753;33;20029;-85
2021/12/03 04:19:23;;;;;;;23.38;14.05;;;3.30;81.70;;;-151.14;100.00;62537.16;4043225;33;20264;-86
2021/12/03 04:21:50;;;;;;;23.83;14.35;;;3.20;81.60;;;-151.14;100.00;62537.16;3977566;33;20273;-85
2021/12/03 04:24:17;;;;;;;19.75;13.00;;;3.30;81.70;;;-151.14;100.00;62537.16;4021979;33;20300;-86
2021/12/03 04:26:43;;;;;;;22.88;13.48;;;3.30;81.60;;;-151.14;100.00;62537.16;4001408;33;20342;-85
2021/12/03 04:29:09;;;;;;;20.45;13.77;;;3.30;81.60;;;-151.14;100.00;62537.16;4002917;33;20180;-85
2021/12/03 04:31:36;;;;;;;23.60;14.88;;;3.30;81.60;;;-151.14;100.00;62537.16;4002178;33;20277;-85
2021/12/03 04:34:03;;;;;;;19.88;12.30;;;3.20;81.60;;;-151.14;100.00;62537.16;4002256;33;20140;-84
2021/12/03 04:36:33;;;;;;;20.02;12.90;;;3.30;81.60;;;-151.14;100.00;62537.16;3999599;33;20327;-85
2021/12/03 04:39:06;;;;;;;20.85;13.23;;;3.30;81.60;;;-151.14;100.00;62537.16;4019549;33;20236;-86
2021/12/03 04:41:32;;;;;;;20.00;12.88;;;3.30;81.70;;;-151.14;100.00;62537.16;3994903;33;20292;-85
2021/12/03 04:44:02;;;;;;;18.48;12.57;;;3.30;81.60;;;-151.14;100.00;62537.16;3977778;33;20302;-85
2021/12/03 04:46:28;;;;;;;21.95;13.55;;;3.20;81.50;;;-151.14;100.00;62537.16;3999714;33;20283;-85
2021/12/03 04:48:55;;;;;;;22.13;13.20;;;3.30;81.60;;;-151.14;100.00;62537.16;4045216;33;20246;-85
2021/12/03 04:51:21;;;;;;;21.75;13.70;;;3.30;81.70;;;-151.14;100.00;62537.16;4044658;33;20282;-86
2021/12/03 04:53:48;;;;;;;22.23;13.93;;;3.30;81.60;;;-151.14;100.00;62537.16;4046617;33;20358;-86
2021/12/03 04:56:14;;;;;;;21.25;12.52;;;3.30;81.60;;;-151.14;100.00;62537.16;4027190;33;20287;-86
2021/12/03 04:58:40;;;;;;;20.67;13.07;;;3.30;81.60;;;-151.14;100.00;62537.16;3991921;33;20540;-86
2021/12/03 05:01:07;;;;;;;21.13;13.30;;;3.30;81.70;;;-151.14;100.00;62537.16;3993058;33;20283;-85
2021/12/03 05:03:33;;;;;;;20.67;12.95;;;3.30;81.60;;;-151.14;100.00;62537.16;3973145;33;19997;-86
2021/12/03 05:06:02;;;;;;;20.83;12.98;;;3.30;81.60;;;-151.14;100.00;62537.16;3994840;33;20100;-85
2021/12/03 05:08:30;;;;;;;20.70;13.30;;;3.30;81.60;;;-151.14;100.00;62537.16;3973347;33;19995;-87
2021/12/03 05:10:57;;;;;;;21.58;13.73;;;3.30;81.60;;;-151.14;100.00;62537.16;4018630;33;20070;-85
2021/12/03 05:13:31;;;;;;;21.23;13.35;;;3.30;81.70;;;-151.14;100.00;62537.16;3997184;33;20684;-85
2021/12/03 05:15:57;;;;;;;19.63;13.05;;;3.30;81.70;;;-151.14;100.00;62537.16;4005328;33;20265;-85
2021/12/03 05:18:27;;;;;;;21.73;13.10;;;3.30;81.70;;;-151.14;100.00;62537.16;4021662;33;20275;-86
2021/12/03 05:21:00;;;;;;;20.63;12.35;;;3.30;81.70;;;-151.14;100.00;62537.16;4023151;33;20295;-85
2021/12/03 05:23:28;;;;;;;20.52;12.98;;;3.30;81.60;;;-151.14;100.00;62537.16;3999370;33;20377;-84
2021/12/03 05:25:54;;;;;;;21.08;13.02;;;3.30;81.70;;;-151.14;100.00;62537.16;4014221;34;20322;-85
2021/12/03 05:28:21;;;;;;;20.17;12.32;;;3.30;81.60;;;-151.14;100.00;62537.16;3970845;34;20069;-85
2021/12/03 05:30:47;;;;;;;21.40;13.75;;;3.30;81.60;;;-151.14;100.00;62537.16;3977855;33;20278;-85
2021/12/03 05:33:14;;;;;;;22.73;13.55;;;3.30;81.70;;;-151.14;100.00;62537.16;4025076;33;20280;-85
2021/12/03 05:35:40;;;;;;;19.27;13.00;;;3.30;81.60;;;-151.14;100.00;62537.16;4024203;33;20237;-85
2021/12/03 05:38:07;;;;;;;22.08;12.63;;;3.30;81.60;;;-151.14;100.00;62537.16;3998172;33;20385;-85
2021/12/03 05:40:33;;;;;;;21.83;13.18;;;3.30;81.60;;;-151.14;100.00;62537.16;4041783;33;20351;-86
2021/12/03 05:43:00;;;;;;;23.27;13.95;;;3.30;81.60;;;-151.14;100.00;62537.16;3975832;33;20274;-85
2021/12/03 05:45:30;;;;;;;21.10;12.93;;;3.20;82.30;;;-151.14;100.00;62537.16;4043330;33;20265;-86
2021/12/03 05:47:57;;;;;;;21.02;13.73;;;3.30;81.60;;;-151.14;100.00;62537.16;4000581;33;20304;-86
2021/12/03 05:50:24;;;;;;;20.45;12.68;;;3.20;81.50;;;-151.14;100.00;62537.16;3998855;33;20328;-86
2021/12/03 05:52:51;;;;;;;23.90;14.95;;;3.30;81.60;;;-151.14;100.00;62537.16;4000368;33;20287;-86
2021/12/03 05:55:17;;;;;;;20.42;13.70;;;3.30;81.60;;;-151.14;100.00;62537.16;3997437;33;20295;-85
2021/12/03 05:57:44;;;;;;;21.70;13.52;;;3.30;81.70;;;-151.14;100.00;62537.16;3994142;33;20287;-86
2021/12/03 06:00:24;;;;;;;23.00;14.05;;;3.30;81.70;;;-151.14;100.00;62537.16;4016438;33;20263;-86
2021/12/03 06:02:52;;;;;;;21.35;13.40;;;3.30;81.60;;;-151.14;100.00;62537.16;3998906;33;20290;-85
2021/12/03 06:05:23;;;;;;;22.37;13.33;;;3.20;81.60;;;-151.14;100.00;62537.16;3997926;33;20294;-86
2021/12/03 06:07:50;;;;;;;23.15;14.15;;;3.20;81.60;;;-151.14;100.00;62537.16;3989527;34;20279;-85
2021/12/03 06:10:26;;;;;;;22.83;13.45;;;3.30;81.70;;;-151.14;100.00;62537.16;3991506;34;20555;-86
2021/12/03 06:12:53;;;;;;;;;;;3.30;81.60;;;-151.14;100.00;62537.16;3969425;34;20003;-85
2021/12/03 06:15:22;;;;;;;19.83;13.20;;;3.20;81.60;;;-151.14;100.00;62537.16;3989341;34;19954;-86
2021/12/03 06:17:49;;;;;;;22.70;14.00;;;3.30;81.60;;;-151.14;100.00;62537.16;3986267;34;20293;-85
2021/12/03 06:20:16;;;;;;;20.83;13.83;;;3.30;81.60;;;-151.14;100.00;62537.16;3986787;34;20301;-86
2021/12/03 06:22:43;;;;;;;20.98;13.73;;;3.30;81.60;;;-151.14;100.00;62537.16;3994442;33;20610;-86
2021/12/03 06:25:11;;;;;;;22.42;14.07;;;3.30;81.60;;;-151.14;100.00;62537.16;4042304;33;20005;-86
2021/12/03 06:27:38;;;;;;;21.23;14.15;;;3.20;81.40;;;-151.14;100.00;62537.16;4032262;34;20363;-85
2021/12/03 06:30:13;;;;;;;24.40;15.38;;;3.30;81.60;;;-151.14;100.00;62537.16;3969499;34;20328;-86
2021/12/03 06:32:43;;;;;;;24.23;15.17;;;3.30;81.40;;;-151.14;100.00;62537.16;3973625;34;19994;-85
2021/12/03 06:35:11;;;;;;;24.42;15.48;;;3.30;81.40;;;-151.14;100.00;62537.16;3969626;34;20549;-85
2021/12/03 06:37:38;;;;;;;22.50;14.60;;;3.30;81.50;;;-151.14;100.00;62537.16;3992127;33;20282;-85
2021/12/03 06:40:09;;;;;;;23.17;14.35;;;3.30;81.50;;;-151.14;100.00;62537.16;3997575;33;20278;-86
2021/12/03 06:42:36;;;;;;;23.42;15.25;;;3.30;81.50;;;-151.14;100.00;62537.16;3999362;33;20191;-85
2021/12/03 06:45:06;;;;;;;24.13;15.27;;;3.30;81.50;;;-151.14;100.00;62537.16;4021839;33;19990;-84
2021/12/03 06:47:33;;;;;;;21.70;14.00;;;3.30;81.50;;;-151.14;100.00;62537.16;4012444;34;20007;-86
2021/12/03 06:50:02;;;;;;;25.67;15.23;;;3.30;81.50;;;-151.14;100.00;62537.16;4012369;34;20333;-85
2021/12/03 06:52:30;;;;;;;22.63;14.70;;;3.30;81.50;;;-151.14;100.00;62537.16;3949608;34;20285;-85
2021/12/03 06:54:59;;;;;;;21.77;13.95;;;3.30;81.50;;;-151.14;100.00;62537.16;3972388;34;20620;-85
2021/12/03 06:57:25;;;;;;;23.15;14.95;;;3.30;81.40;;;-151.14;100.00;62537.16;3989567;34;20265;-85
2021/12/03 06:59:52;;;;;;;25.75;15.43;;;3.30;81.40;;;-151.14;100.00;62537.16;3988499;34;20616;-85
2021/12/03 07:02:18;;;;;;;23.35;14.07;;;3.30;81.40;;;-151.14;100.00;62537.16;3944900;34;20538;-85
2021/12/03 07:04:47;;;;;;;24.27;14.93;;;3.30;81.40;;;-151.14;100.00;62537.16;3966462;34;20277;-85
2021/12/03 07:07:14;;;;;;;25.17;14.98;;;3.30;81.30;;;-151.14;100.00;62537.16;3969186;34;20312;-85
2021/12/03 07:09:41;;;;;;;24.27;14.77;;;3.30;81.30;;;-151.14;100.00;62537.16;3988842;34;20297;-85
2021/12/03 07:12:09;;;;;;;24.70;15.48;;;3.30;81.20;;;-151.14;100.00;62537.16;3988627;34;20355;-83
2021/12/03 07:14:38;;;;;;;29.15;15.70;;;3.30;81.10;;;-151.14;100.00;62537.16;3998478;33;20275;-85
2021/12/03 07:17:06;;;;;;;26.27;15.13;;;3.30;81.10;;;-151.14;100.00;62537.16;3995393;33;20358;-85
2021/12/03 07:19:33;;;;;;;30.50;18.20;;;3.40;81.10;;;-151.14;100.00;62537.16;4012344;33;20289;-85
2021/12/03 07:22:00;;;;;;;26.95;15.57;;;3.30;81.10;;;-151.14;100.00;62537.16;3988529;33;20264;-84
2021/12/03 07:24:27;;;;;;;30.75;16.23;;;3.30;81.00;;;-151.14;100.00;62537.16;3966167;33;20281;-85
2021/12/03 07:26:53;;;;;;;23.23;16.60;;;3.40;81.10;;;-151.14;100.00;62537.16;3971024;33;20300;-85
2021/12/03 07:29:19;;;;;;;23.65;15.88;;;3.40;81.00;;;-151.14;100.00;62537.16;3992953;33;20126;-84
2021/12/03 07:31:46;;;;;;;26.08;16.30;;;3.30;81.00;;;-151.14;100.00;62537.16;3993651;33;20260;-84
2021/12/03 07:34:14;;;;;;;25.60;16.20;;;3.40;80.90;;;-151.14;100.00;62537.16;3986646;33;20376;-85
2021/12/03 07:36:41;;;;;;;32.38;18.88;;;3.30;80.90;;;-151.14;100.00;62537.16;4041408;33;20311;-85
2021/12/03 07:39:07;;;;;;;29.00;17.80;;;3.40;80.90;;;-151.14;100.00;62537.16;4014530;33;20287;-85
2021/12/03 07:41:36;;;;;;;28.47;16.70;;;3.40;80.80;;;-151.14;100.00;62537.16;4017651;33;20426;-85
2021/12/03 07:44:03;;;;;;;25.80;16.40;;;3.40;80.90;;;-151.14;100.00;62537.16;4022229;33;20278;-85
2021/12/03 07:46:30;;;;;;;30.10;17.45;;;3.40;80.90;;;-151.14;100.00;62537.16;4020987;33;20310;-85
2021/12/03 07:48:56;;;;;;;30.25;17.60;;;3.40;80.80;;;-151.14;100.00;62537.16;4022173;33;20290;-86
2021/12/03 07:51:22;;;;;;;27.95;17.05;;;3.40;80.90;;;-151.14;100.00;62537.16;3997809;33;20329;-85
2021/12/03 07:53:49;;;;;;;30.38;19.30;;;3.40;80.80;;;-151.14;100.00;62537.16;3984477;34;20226;-85
2021/12/03 07:56:15;;;;;;;29.27;18.38;;;3.40;80.80;;;-151.14;100.00;62537.16;4011897;34;20309;-85
2021/12/03 07:58:41;;;;;;;27.77;16.67;;;3.40;80.80;;;-151.14;100.00;62537.16;3989361;34;20374;-85
2021/12/03 08:01:08;;;;;;;32.17;17.58;;;3.40;80.80;;;-151.14;100.00;62537.16;3991259;34;20031;-86
2021/12/03 08:03:34;;;;;;;35.80;19.92;;;3.40;80.60;;;-151.14;100.00;62537.16;4032928;34;20300;-86
2021/12/03 08:06:07;;;;;;;35.63;21.48;;;3.40;80.60;;;-151.14;100.00;62537.16;4011506;34;20357;-86
2021/12/03 08:08:33;;;;;;;33.87;19.47;;;3.40;80.70;;;-151.14;100.00;62537.16;4002852;33;20283;-87
2021/12/03 08:11:00;;;;;;;32.65;19.85;;;3.40;80.60;;;-151.14;100.00;62537.16;4042040;33;19998;-86
2021/12/03 08:13:26;;;;;;;31.13;18.95;;;3.50;80.60;;;-151.14;100.00;62537.16;3976370;33;20320;-85
2021/12/03 08:15:53;;;;;;;34.30;20.50;;;3.50;80.60;;;-151.14;100.00;62537.16;3998140;33;20344;-86
2021/12/03 08:18:20;;;;;;;34.88;20.00;;;3.50;80.40;;;-151.14;100.00;62537.16;4019859;33;20276;-87
2021/12/03 08:20:46;;;;;;;34.25;19.88;;;3.50;80.40;;;-151.14;100.00;62537.16;3970464;33;20277;-87
2021/12/03 08:23:13;;;;;;;33.30;20.50;;;3.50;80.30;;;-151.14;100.00;62537.16;3966937;33;20492;-86
2021/12/03 08:25:39;;;;;;;37.53;22.08;;;3.50;80.30;;;-151.14;100.00;62537.16;3968377;33;20155;-86
2021/12/03 08:28:06;;;;;;;43.45;24.40;;;3.50;80.30;;;-151.14;100.00;62537.16;3971385;33;20289;-86
2021/12/03 08:30:33;;;;;;;36.83;21.48;;;3.50;80.20;;;-151.14;100.00;62537.16;4016773;33;20275;-87
2021/12/03 08:32:59;;;;;;;37.05;21.70;;;3.50;80.20;;;-151.14;100.00;62537.16;3970259;33;20294;-87
2021/12/03 08:35:26;;;;;;;39.78;23.73;;;3.50;80.20;;;-151.14;100.00;62537.16;3971801;33;20220;-86
2021/12/03 08:37:53;;;;;;;42.05;23.55;;;3.50;80.10;;;-151.14;100.00;62537.16;4021373;33;20369;-85
2021/12/03 08:40:20;;;;;;;44.08;26.48;;;3.50;80.00;;;-151.14;100.00;62537.16;4040910;33;20587;-87
2021/12/03 08:42:48;;;;;;;45.28;26.75;;;3.50;80.00;;;-151.14;100.00;62537.16;4037988;33;20263;-86
2021/12/03 08:45:17;;;;;;;40.15;24.48;;;3.50;80.00;;;-151.14;100.00;62537.16;4019085;33;20337;-86
2021/12/03 08:47:49;;;;;;;38.53;23.63;;;3.50;80.90;;;-151.14;100.00;62537.16;4043065;33;20262;-86
2021/12/03 08:50:19;;;;;;;39.70;22.88;;;3.50;80.00;;;-151.14;100.00;62537.16;4014509;33;20286;-90
2021/12/03 08:55:31;;;;;;;37.47;22.00;;;3.50;80.00;;;-151.14;100.00;62537.16;4001224;34;20292;-86
2021/12/03 08:57:59;;;;;;;45.70;22.25;;;3.50;80.10;;;-151.14;100.00;62537.16;3967377;34;20306;-85
2021/12/03 09:00:25;;;;;;;37.03;22.35;;;3.50;80.10;;;-151.14;100.00;62537.16;3969923;34;20281;-87
2021/12/03 09:02:52;;;;;;;37.03;21.13;;;3.50;80.10;;;-151.14;100.00;62537.16;3989173;34;20003;-86
2021/12/03 09:05:19;;;;;;;34.72;21.48;;;3.50;80.10;;;-151.14;100.00;62537.16;3991178;34;20387;-86
2021/12/03 09:07:45;;;;;;;38.20;21.83;;;3.50;80.10;;;-151.14;100.00;62537.16;3991212;34;20273;-85
2021/12/03 09:10:13;;;;;;;38.45;21.15;;;3.40;80.00;;;-151.14;100.00;62537.16;3953339;34;20019;-86
2021/12/03 09:12:41;;;;;;;34.83;21.40;;;3.40;80.10;;;-151.14;100.00;62537.16;3992751;34;20275;-85
2021/12/03 09:15:16;;;;;;;37.42;22.48;;;3.40;80.10;;;-151.14;100.00;62537.16;3972424;34;19996;-85
2021/12/03 09:20:28;;;;;;;38.22;22.30;;;3.40;80.00;;;-151.14;100.00;62537.16;3994352;34;20370;-86
2021/12/03 09:23:01;;;;;;;35.38;21.48;;;3.40;80.10;;;-151.14;100.00;62537.16;3995251;34;20631;-86
2021/12/03 09:25:33;;;;;;;39.00;21.30;;;3.40;80.10;;;-151.14;100.00;62537.16;3996725;34;20754;-85
2021/12/03 09:28:03;;;;;;;32.63;20.33;;;3.40;80.10;;;-151.14;100.00;62537.16;4017022;34;20681;-86
2021/12/03 09:30:40;;;;;;;38.10;22.33;;;3.40;80.10;;;-151.14;100.00;62537.16;3974362;34;20293;-87
2021/12/03 09:33:10;;;;;;;38.13;20.83;;;3.40;80.10;;;-151.14;100.00;62537.16;3995528;34;20298;-85
2021/12/03 09:35:44;;;;;;;37.35;22.92;;;3.40;80.10;;;-151.14;100.00;62537.16;3974318;34;19995;-86
2021/12/03 09:38:12;;;;;;;34.30;21.27;;;3.40;80.10;;;-151.14;100.00;62537.16;3998829;34;20353;-85
2021/12/03 09:40:40;;;;;;;36.47;22.38;;;3.40;80.20;;;-151.14;100.00;62537.16;4060631;34;20373;-86
2021/12/03 09:43:07;;;;;;;37.30;21.80;;;3.40;80.20;;;-151.14;100.00;62537.16;4014182;34;20620;-85
2021/12/03 09:45:35;;;;;;;34.15;20.80;;;3.30;80.20;;;-151.14;100.00;62537.16;3991729;34;20301;-86
2021/12/03 09:48:11;;;;;;;37.70;22.02;;;3.40;80.20;;;-151.14;100.00;62537.16;3995750;34;20184;-86
2021/12/03 09:50:39;;;;;;;39.70;21.48;;;3.40;80.10;;;-151.14;100.00;62537.16;3995886;34;20110;-86
2021/12/03 09:53:27;;;;;;;36.88;21.08;;;3.40;80.20;;;-151.14;100.00;62537.16;3993850;34;20067;-86
2021/12/03 09:56:10;;;;;;;31.63;17.98;;;3.30;80.30;;;-151.14;100.00;62537.16;3977246;34;20355;-86
2021/12/03 10:15:18;;;;;;;29.27;16.08;;;3.40;80.20;;;-151.14;100.00;62537.16;4036820;33;20307;-87
2021/12/03 10:17:55;;;;;;;23.50;14.32;;;3.40;80.20;;;-151.14;100.00;62537.16;3978755;33;20307;-86
2021/12/03 10:20:37;;;;;;;25.00;14.80;;;3.40;80.20;;;-151.14;100.00;62537.16;4000146;33;20281;-86